createdAt,value
2019-03-22T00:01:51.321Z,34.05
2019-03-22T00:04:20.060Z,28.85
2019-03-22T00:06:48.809Z,25.52
2019-03-22T00:09:17.485Z,8.53
2019-03-22T00:11:46.220Z,15.25
2019-03-22T00:14:14.970Z,26.95
2019-03-22T00:16:43.696Z,32.50
2019-03-22T00:19:12.409Z,13.22
2019-03-22T00:21:41.116Z,24.35
2019-03-22T00:24:09.800Z,17.52
2019-03-22T00:26:38.536Z,23.85
2019-03-22T00:29:07.324Z,15.63
2019-03-22T00:31:36.133Z,23.40
2019-03-22T00:34:04.741Z,27.30
2019-03-22T00:36:33.412Z,26.25
2019-03-22T00:39:02.067Z,23.42
2019-03-22T00:41:30.707Z,27.52
2019-03-22T00:43:59.377Z,27.65
2019-03-22T00:46:28.059Z,18.95
2019-03-22T00:48:56.758Z,18.50
2019-03-22T00:51:25.442Z,21.93
2019-03-22T00:53:54.123Z,28.23
2019-03-22T00:56:22.843Z,20.02
2019-03-22T00:58:51.529Z,19.23
2019-03-22T01:01:20.247Z,22.52
2019-03-22T01:03:48.998Z,24.72
2019-03-22T01:06:17.671Z,21.33
2019-03-22T01:08:46.466Z,24.05
2019-03-22T01:11:15.181Z,27.62
2019-03-22T01:13:43.807Z,22.10
2019-03-22T01:16:12.531Z,22.85
2019-03-22T01:18:41.262Z,26.82
2019-03-22T01:21:09.980Z,25.72
2019-03-22T01:23:38.723Z,21.27
2019-03-22T01:26:07.571Z,31.45
2019-03-22T01:28:36.280Z,27.75
2019-03-22T01:31:05.054Z,21.62
2019-03-22T01:33:33.896Z,25.50
2019-03-22T01:36:02.536Z,36.55
2019-03-22T01:38:31.279Z,28.27
2019-03-22T01:41:00.008Z,28.00
2019-03-22T01:43:28.798Z,24.00
2019-03-22T01:45:57.487Z,30.48
2019-03-22T01:48:26.253Z,43.87
2019-03-22T01:50:54.920Z,27.15
2019-03-22T01:53:23.609Z,26.90
2019-03-22T01:55:52.341Z,37.30
2019-03-22T01:58:21.103Z,23.57
2019-03-22T02:00:49.767Z,26.87
2019-03-22T02:03:18.468Z,29.60
2019-03-22T02:05:47.182Z,23.32
2019-03-22T02:08:15.887Z,18.67
2019-03-22T02:10:44.543Z,26.37
2019-03-22T02:13:13.284Z,34.30
2019-03-22T02:15:42.001Z,27.40
2019-03-22T02:18:10.755Z,32.28
2019-03-22T02:20:39.621Z,35.75
2019-03-22T02:23:08.322Z,36.08
2019-03-22T02:25:37.059Z,37.13
2019-03-22T02:28:05.881Z,26.40
2019-03-22T02:30:34.575Z,30.45
2019-03-22T02:33:03.228Z,34.90
2019-03-22T02:35:31.943Z,34.80
2019-03-22T02:38:00.643Z,25.50
2019-03-22T02:40:29.384Z,26.27
2019-03-22T02:42:58.091Z,34.40
2019-03-22T02:45:26.764Z,30.12
2019-03-22T02:47:55.492Z,27.95
2019-03-22T02:50:24.296Z,34.60
2019-03-22T02:52:53.070Z,24.70
2019-03-22T02:55:21.713Z,32.83
2019-03-22T02:57:50.364Z,24.57
2019-03-22T03:00:19.431Z,26.02
2019-03-22T03:02:48.172Z,24.80
2019-03-22T03:05:16.927Z,28.85
2019-03-22T03:07:45.791Z,35.68
2019-03-22T03:10:14.790Z,29.85
2019-03-22T03:12:43.542Z,29.32
2019-03-22T03:15:12.672Z,26.82
2019-03-22T03:17:41.375Z,33.05
2019-03-22T03:20:11.329Z,29.32
2019-03-22T03:22:40.087Z,30.00
2019-03-22T03:25:09.529Z,30.37
2019-03-22T03:27:38.230Z,31.42
2019-03-22T03:30:07.811Z,33.45
2019-03-22T03:32:36.697Z,22.17
2019-03-22T03:35:05.501Z,31.12
2019-03-22T03:37:34.183Z,29.63
2019-03-22T03:40:02.891Z,12.23
2019-03-22T03:42:34.204Z,10.45
2019-03-22T03:45:02.946Z,27.02
2019-03-22T03:47:31.571Z,35.68
2019-03-22T03:50:00.487Z,26.07
2019-03-22T03:52:29.283Z,29.50
2019-03-22T03:54:57.961Z,30.80
2019-03-22T03:57:26.660Z,21.07
2019-03-22T03:59:55.378Z,28.77
2019-03-22T04:02:24.147Z,37.45
2019-03-22T04:04:52.855Z,41.23
2019-03-22T04:07:21.630Z,44.23
2019-03-22T04:09:50.381Z,49.03
2019-03-22T04:12:19.066Z,54.88
2019-03-22T04:14:47.807Z,59.08
2019-03-22T04:17:16.571Z,61.23
2019-03-22T04:19:45.334Z,58.90
2019-03-22T04:22:13.961Z,53.98
2019-03-22T04:24:42.648Z,33.35
2019-03-22T04:27:11.397Z,50.63
2019-03-22T04:29:40.146Z,74.67
2019-03-22T04:32:08.912Z,80.45
2019-03-22T04:34:37.602Z,107.87
2019-03-22T04:37:06.327Z,134.70
2019-03-22T04:39:35.100Z,228.75
2019-03-22T04:42:03.887Z,159.10
2019-03-22T04:44:32.769Z,120.82
2019-03-22T04:47:02.769Z,99.00
2019-03-22T04:49:33.886Z,129.07
2019-03-22T04:52:03.280Z,152.53
2019-03-22T04:54:34.971Z,508.32
2019-03-22T04:57:05.271Z,391.15
2019-03-22T04:59:35.101Z,231.00
2019-03-22T05:02:05.437Z,469.40
2019-03-22T05:04:35.773Z,555.60
2019-03-22T05:07:04.781Z,274.65
2019-03-22T05:09:55.354Z,343.85
2019-03-22T05:12:28.472Z,257.75
2019-03-22T05:15:17.338Z,384.67
2019-03-22T05:17:49.524Z,297.63
2019-03-22T05:20:39.504Z,165.90
2019-03-22T05:23:09.154Z,150.95
2019-03-22T05:25:38.758Z,202.33
2019-03-22T05:28:10.912Z,394.37
2019-03-22T05:31:19.200Z,362.82
2019-03-22T05:33:48.008Z,314.88
2019-03-22T05:36:16.900Z,225.05
2019-03-22T05:38:45.614Z,357.35
2019-03-22T05:41:14.446Z,219.55
2019-03-22T05:43:44.802Z,342.15
2019-03-22T05:46:13.603Z,347.12
2019-03-22T05:48:44.401Z,592.77
2019-03-22T05:51:13.061Z,611.38
2019-03-22T05:53:41.697Z,340.77
2019-03-22T05:56:10.621Z,426.13
2019-03-22T05:58:39.291Z,214.85
2019-03-22T06:01:08.019Z,203.30
2019-03-22T06:03:36.817Z,224.62
2019-03-22T06:06:05.586Z,155.32
2019-03-22T06:08:34.268Z,211.85
2019-03-22T06:11:03.010Z,200.43
2019-03-22T06:13:31.957Z,178.32
2019-03-22T06:16:00.776Z,115.67
2019-03-22T06:18:29.443Z,164.18
2019-03-22T06:20:58.196Z,149.02
2019-03-22T06:23:27.018Z,195.35
2019-03-22T06:25:55.763Z,236.62
2019-03-22T06:28:24.441Z,267.75
2019-03-22T06:30:53.162Z,361.35
2019-03-22T06:33:22.022Z,329.35
2019-03-22T06:35:50.915Z,230.35
2019-03-22T06:38:19.618Z,291.85
2019-03-22T06:40:48.368Z,227.22
2019-03-22T06:43:17.054Z,230.45
2019-03-22T06:45:45.774Z,155.60
2019-03-22T06:48:14.584Z,189.28
2019-03-22T06:50:43.328Z,296.93
2019-03-22T06:53:12.064Z,279.80
2019-03-22T06:55:40.849Z,294.98
2019-03-22T06:58:09.647Z,264.38
2019-03-22T07:00:38.292Z,282.62
2019-03-22T07:03:07.071Z,284.05
2019-03-22T07:05:35.779Z,150.50
2019-03-22T07:08:04.544Z,176.47
2019-03-22T07:10:33.296Z,147.07
2019-03-22T07:13:02.073Z,90.97
2019-03-22T07:15:30.793Z,184.03
2019-03-22T07:17:59.510Z,197.15
2019-03-22T07:20:28.248Z,138.03
2019-03-22T07:22:57.101Z,134.45
2019-03-22T07:25:25.829Z,93.30
2019-03-22T07:27:54.473Z,154.75
2019-03-22T07:30:23.331Z,208.15
2019-03-22T07:32:52.047Z,252.15
2019-03-22T07:35:20.884Z,87.67
2019-03-22T07:37:49.713Z,190.92
2019-03-22T07:40:18.387Z,201.85
2019-03-22T07:42:47.069Z,186.18
2019-03-22T07:45:15.798Z,157.72
2019-03-22T07:47:44.472Z,85.47
2019-03-22T07:50:13.366Z,133.95
2019-03-22T07:52:42.071Z,96.15
2019-03-22T07:55:10.720Z,98.70
2019-03-22T07:57:39.414Z,54.85
2019-03-22T08:00:08.720Z,102.72
2019-03-22T08:02:37.451Z,103.40
2019-03-22T08:05:06.904Z,90.05
2019-03-22T08:07:35.619Z,82.40
2019-03-22T08:10:04.893Z,83.33
2019-03-22T08:12:33.739Z,70.32
2019-03-22T08:15:02.461Z,86.08
2019-03-22T08:17:31.211Z,108.70
2019-03-22T08:20:00.034Z,38.00
2019-03-22T08:22:28.844Z,63.35
2019-03-22T08:24:57.594Z,56.60
2019-03-22T08:27:26.424Z,79.37
2019-03-22T08:29:55.296Z,67.65
2019-03-22T08:32:23.981Z,80.17
2019-03-22T08:34:52.821Z,59.53
2019-03-22T08:37:21.566Z,62.35
2019-03-22T08:39:50.303Z,39.33
2019-03-22T08:42:19.141Z,79.12
2019-03-22T08:44:48.032Z,76.75
2019-03-22T08:47:16.747Z,59.70
2019-03-22T08:49:45.648Z,60.17
2019-03-22T08:52:14.748Z,59.13
2019-03-22T08:54:43.401Z,58.60
2019-03-22T08:57:12.277Z,68.47
2019-03-22T08:59:41.006Z,61.42
2019-03-22T09:02:09.844Z,61.98
2019-03-22T09:04:38.535Z,58.15
2019-03-22T09:07:07.269Z,49.05
2019-03-22T09:09:41.373Z,47.65
2019-03-22T09:14:34.011Z,55.17
2019-03-22T09:17:02.865Z,53.17
2019-03-22T09:19:31.652Z,53.75
2019-03-22T09:22:00.294Z,55.63
2019-03-22T09:24:38.627Z,50.50
2019-03-22T09:26:59.683Z,54.67
2019-03-22T09:29:28.507Z,54.10
2019-03-22T09:31:57.196Z,51.88
2019-03-22T09:34:33.618Z,47.70
2019-03-22T09:36:56.416Z,41.53
2019-03-22T09:39:25.304Z,52.50
2019-03-22T09:41:54.192Z,48.17
2019-03-22T09:44:22.886Z,40.58
2019-03-22T09:46:51.689Z,35.63
2019-03-22T09:49:20.487Z,38.90
2019-03-22T09:51:49.288Z,37.45
2019-03-22T09:54:18.159Z,41.02
2019-03-22T09:56:47.639Z,40.95
2019-03-22T09:59:16.412Z,39.33
2019-03-22T10:01:45.231Z,38.88
2019-03-22T10:04:14.155Z,27.82
2019-03-22T10:06:43.032Z,30.90
2019-03-22T10:09:11.665Z,33.90
2019-03-22T10:11:40.501Z,30.68
2019-03-22T10:14:09.214Z,36.42
2019-03-22T10:16:38.045Z,30.80
2019-03-22T10:19:06.904Z,29.27
2019-03-22T10:21:35.714Z,27.02
2019-03-22T10:24:04.546Z,25.62
2019-03-22T10:26:33.558Z,25.52
2019-03-22T10:29:03.207Z,28.20
2019-03-22T10:31:37.197Z,24.80
2019-03-22T10:34:02.463Z,24.52
2019-03-22T10:36:31.275Z,21.05
2019-03-22T10:39:00.101Z,23.62
2019-03-22T10:41:29.155Z,20.37
2019-03-22T10:43:58.123Z,15.23
2019-03-22T10:46:27.043Z,19.12
2019-03-22T10:48:55.807Z,13.40
2019-03-22T10:51:24.797Z,18.20
2019-03-22T10:53:53.627Z,15.80
2019-03-22T10:56:24.791Z,11.43
2019-03-22T10:58:53.093Z,16.25
2019-03-22T11:01:22.150Z,16.33
2019-03-22T11:03:51.000Z,9.47
2019-03-22T11:06:26.135Z,12.95
2019-03-22T11:08:50.547Z,8.30
2019-03-22T11:11:19.357Z,10.28
2019-03-22T11:13:48.216Z,11.70
2019-03-22T11:16:17.072Z,7.37
2019-03-22T11:18:45.718Z,10.78
2019-03-22T11:21:14.496Z,8.73
2019-03-22T11:23:44.912Z,6.50
2019-03-22T11:26:13.921Z,14.83
2019-03-22T11:28:42.866Z,13.50
2019-03-22T11:31:11.622Z,8.13
2019-03-22T11:33:40.515Z,11.12
2019-03-22T11:36:09.430Z,7.77
2019-03-22T11:38:38.242Z,13.23
2019-03-22T11:41:07.012Z,11.10
2019-03-22T11:43:35.727Z,9.30
2019-03-22T11:46:04.768Z,8.30
2019-03-22T11:48:33.462Z,8.18
2019-03-22T11:51:02.260Z,13.10
2019-03-22T11:53:30.979Z,8.60
2019-03-22T11:55:59.755Z,7.95
2019-03-22T11:58:28.442Z,7.10
2019-03-22T12:00:57.214Z,6.62
2019-03-22T12:03:26.277Z,5.55
2019-03-22T12:05:54.917Z,7.17
2019-03-22T12:08:25.497Z,9.30
2019-03-22T12:10:54.181Z,6.45
2019-03-22T12:13:22.913Z,5.77
2019-03-22T12:15:51.810Z,8.98
2019-03-22T12:18:20.857Z,6.10
2019-03-22T12:20:49.587Z,8.43
2019-03-22T12:23:18.381Z,5.93
2019-03-22T12:25:47.053Z,5.40
2019-03-22T12:28:15.916Z,4.37
2019-03-22T12:30:44.672Z,6.37
2019-03-22T12:33:13.378Z,4.93
2019-03-22T12:35:42.684Z,6.00
2019-03-22T12:38:11.476Z,5.78
2019-03-22T12:40:40.292Z,4.87
2019-03-22T12:43:09.362Z,3.87
2019-03-22T12:45:39.000Z,4.25
2019-03-22T12:48:07.820Z,4.78
2019-03-22T12:50:36.693Z,5.62
2019-03-22T12:53:05.872Z,6.78
2019-03-22T12:55:35.436Z,5.67
2019-03-22T13:00:31.876Z,10.08
2019-03-22T13:03:00.628Z,4.15
2019-03-22T13:05:29.647Z,8.58
2019-03-22T13:07:58.607Z,4.15
2019-03-22T13:10:27.844Z,4.25
2019-03-22T13:12:56.881Z,3.72
2019-03-22T13:15:25.675Z,7.25
2019-03-22T13:17:54.348Z,3.45
2019-03-22T13:20:23.356Z,5.23
2019-03-22T13:22:53.245Z,4.75
2019-03-22T13:25:22.160Z,4.17
2019-03-22T13:27:50.946Z,5.85
2019-03-22T13:30:43.937Z,6.90
2019-03-22T13:33:13.072Z,4.97
2019-03-22T13:35:42.090Z,6.15
2019-03-22T13:38:10.832Z,3.95
2019-03-22T13:40:39.562Z,5.08
2019-03-22T13:43:08.267Z,2.87
2019-03-22T13:45:36.992Z,7.12
2019-03-22T13:48:05.839Z,5.20
2019-03-22T13:50:34.561Z,4.72
2019-03-22T13:53:03.591Z,5.25
2019-03-22T13:55:32.537Z,3.42
2019-03-22T13:58:01.322Z,4.40
2019-03-22T14:00:29.992Z,6.45
2019-03-22T14:03:02.956Z,2.25
2019-03-22T14:05:29.161Z,6.15
2019-03-22T14:07:57.863Z,4.17
2019-03-22T14:10:31.261Z,3.35
2019-03-22T14:13:00.426Z,4.50
2019-03-22T14:15:29.499Z,5.37
2019-03-22T14:17:58.345Z,4.30
2019-03-22T14:20:27.271Z,3.22
2019-03-22T14:22:56.443Z,3.58
2019-03-22T14:25:25.167Z,3.17
2019-03-22T14:27:54.031Z,6.60
2019-03-22T14:30:23.097Z,5.08
2019-03-22T14:32:51.881Z,4.58
2019-03-22T14:35:22.113Z,7.25
2019-03-22T14:37:51.319Z,2.52
2019-03-22T14:40:20.065Z,4.47
2019-03-22T14:42:48.887Z,2.50
2019-03-22T14:45:17.913Z,7.03
2019-03-22T14:47:46.562Z,6.90
2019-03-22T14:50:15.349Z,1.87
2019-03-22T14:52:44.170Z,3.47
2019-03-22T14:55:13.335Z,2.35
2019-03-22T14:57:49.057Z,3.83
2019-03-22T15:00:12.823Z,4.10
2019-03-22T15:02:41.730Z,2.52
2019-03-22T15:05:10.745Z,3.67
2019-03-22T15:07:39.794Z,4.30
2019-03-22T15:10:09.731Z,1.15
2019-03-22T15:12:38.633Z,3.25
2019-03-22T15:15:27.007Z,1.65
2019-03-22T15:18:20.470Z,3.37
2019-03-22T15:21:14.251Z,4.40
2019-03-22T15:24:03.469Z,3.08
2019-03-22T15:26:46.399Z,3.08
2019-03-22T15:29:32.793Z,3.33
2019-03-22T15:32:18.947Z,1.70
2019-03-22T15:35:05.348Z,3.00
2019-03-22T15:37:51.902Z,2.47
2019-03-22T15:40:20.908Z,2.47
2019-03-22T15:42:49.605Z,4.37
2019-03-22T15:45:18.510Z,2.23
2019-03-22T15:47:47.397Z,2.05
2019-03-22T15:50:16.792Z,3.75
2019-03-22T15:52:45.653Z,3.62
2019-03-22T15:55:14.666Z,3.08
2019-03-22T15:57:43.433Z,4.42
2019-03-22T16:00:15.604Z,4.17
2019-03-22T16:02:44.692Z,5.17
2019-03-22T16:05:14.327Z,2.30
2019-03-22T16:07:43.119Z,7.28
2019-03-22T16:10:12.086Z,4.03
2019-03-22T16:12:42.028Z,2.72
2019-03-22T16:15:11.504Z,2.15
2019-03-22T16:17:40.212Z,6.08
2019-03-22T16:20:09.807Z,4.53
2019-03-22T16:22:38.707Z,3.72
2019-03-22T16:25:08.106Z,5.43
2019-03-22T16:27:37.080Z,5.62
2019-03-22T16:30:07.210Z,3.17
2019-03-22T16:32:36.274Z,5.33
2019-03-22T16:35:05.940Z,6.45
2019-03-22T16:40:04.582Z,4.08
2019-03-22T16:42:33.288Z,6.67
2019-03-22T16:45:05.177Z,3.07
2019-03-22T16:47:34.374Z,8.78
2019-03-22T16:50:03.265Z,4.17
2019-03-22T16:52:32.159Z,3.63
2019-03-22T16:55:00.874Z,3.13
2019-03-22T16:57:30.160Z,6.00
2019-03-22T16:59:59.256Z,3.72
2019-03-22T17:02:28.041Z,3.50
2019-03-22T17:04:56.831Z,2.87
2019-03-22T17:07:25.753Z,3.87
2019-03-22T17:09:54.569Z,2.80
2019-03-22T17:12:23.357Z,10.00
2019-03-22T17:14:52.373Z,3.50
2019-03-22T17:17:21.159Z,3.03
2019-03-22T17:19:50.026Z,3.47
2019-03-22T17:22:18.902Z,4.25
2019-03-22T17:24:47.827Z,4.58
2019-03-22T17:27:16.599Z,4.17
2019-03-22T17:29:45.537Z,2.75
2019-03-22T17:32:14.766Z,6.45
2019-03-22T17:34:43.564Z,2.10
2019-03-22T17:37:12.367Z,4.50
2019-03-22T17:39:41.319Z,3.02
2019-03-22T17:42:10.105Z,4.12
2019-03-22T17:44:38.828Z,5.78
2019-03-22T17:47:07.543Z,3.20
2019-03-22T17:49:36.676Z,6.20
2019-03-22T17:52:05.740Z,5.90
2019-03-22T17:54:34.612Z,9.35
2019-03-22T17:57:03.529Z,5.12
2019-03-22T17:59:32.281Z,2.75
2019-03-22T18:02:01.402Z,3.90
2019-03-22T18:04:30.308Z,4.47
2019-03-22T18:06:59.118Z,8.83
2019-03-22T18:09:27.872Z,5.67
2019-03-22T18:11:56.772Z,4.10
2019-03-22T18:14:27.038Z,1.70
2019-03-22T18:16:56.061Z,4.47
2019-03-22T18:19:24.798Z,7.55
2019-03-22T18:21:54.604Z,4.33
2019-03-22T18:24:23.859Z,2.58
2019-03-22T18:26:53.339Z,3.47
2019-03-22T18:29:22.150Z,2.08
2019-03-22T18:31:51.050Z,4.75
2019-03-22T18:34:20.078Z,5.78
2019-03-22T18:36:48.821Z,5.47
2019-03-22T18:39:17.738Z,9.73
2019-03-22T18:41:46.531Z,5.70
2019-03-22T18:44:15.432Z,9.73
2019-03-22T18:46:44.286Z,7.55
2019-03-22T18:49:13.509Z,6.87
2019-03-22T18:51:42.286Z,4.42
2019-03-22T18:54:11.338Z,6.30
2019-03-22T18:56:40.703Z,5.12
2019-03-22T18:59:09.865Z,5.67
2019-03-22T19:01:39.555Z,4.37
2019-03-22T19:04:08.554Z,6.17
2019-03-22T19:06:37.409Z,9.70
2019-03-22T19:09:08.881Z,9.10
2019-03-22T19:11:38.051Z,5.85
2019-03-22T19:14:07.230Z,5.62
2019-03-22T19:16:36.643Z,9.78
2019-03-22T19:19:06.677Z,9.50
2019-03-22T19:21:35.644Z,10.32
2019-03-22T19:24:05.034Z,7.42
2019-03-22T19:26:34.017Z,6.37
2019-03-22T19:29:03.359Z,6.22
2019-03-22T19:31:32.330Z,5.90
2019-03-22T19:34:01.956Z,8.75
2019-03-22T19:36:31.612Z,4.97
2019-03-22T19:39:00.478Z,8.33
2019-03-22T19:41:29.909Z,8.20
2019-03-22T19:43:59.150Z,7.63
2019-03-22T19:46:28.494Z,7.90
2019-03-22T19:48:58.359Z,6.33
2019-03-22T19:51:27.523Z,6.47
2019-03-22T19:53:57.324Z,6.58
2019-03-22T19:56:27.600Z,6.28
2019-03-22T19:58:56.928Z,7.67
2019-03-22T20:01:26.766Z,7.97
2019-03-22T20:03:56.028Z,5.17
2019-03-22T20:06:25.577Z,7.10
2019-03-22T20:08:54.880Z,4.35
2019-03-22T20:11:24.100Z,8.68
2019-03-22T20:13:53.471Z,9.68
2019-03-22T20:16:22.763Z,7.03
2019-03-22T20:18:52.633Z,5.97
2019-03-22T20:21:21.722Z,6.17
2019-03-22T20:23:53.841Z,8.85
2019-03-22T20:26:21.867Z,6.12
2019-03-22T20:28:51.275Z,6.83
2019-03-22T20:31:20.963Z,5.37
2019-03-22T20:33:50.103Z,9.40
2019-03-22T20:36:20.196Z,6.08
2019-03-22T20:38:49.712Z,4.15
2019-03-22T20:41:19.282Z,6.17
2019-03-22T20:43:48.464Z,4.43
2019-03-22T20:46:18.120Z,4.70
2019-03-22T20:48:47.985Z,7.97
2019-03-22T20:51:17.653Z,4.10
2019-03-22T20:53:47.698Z,6.67
2019-03-22T20:56:17.463Z,6.10
2019-03-22T20:58:47.594Z,9.90
2019-03-22T21:01:17.520Z,6.50
2019-03-22T21:03:48.063Z,6.53
2019-03-22T21:06:17.829Z,5.90
2019-03-22T21:08:47.230Z,5.67
2019-03-22T21:11:17.099Z,6.80
2019-03-22T21:13:47.072Z,4.20
2019-03-22T21:16:16.163Z,6.05
2019-03-22T21:18:45.934Z,7.25
2019-03-22T21:21:17.396Z,7.95
2019-03-22T21:23:49.122Z,15.70
2019-03-22T21:26:18.163Z,9.03
2019-03-22T21:28:47.425Z,7.67
2019-03-22T21:31:16.589Z,9.40
2019-03-22T21:33:46.059Z,5.58
2019-03-22T21:36:14.998Z,4.60
2019-03-22T21:38:43.826Z,5.12
2019-03-22T21:41:12.922Z,5.42
2019-03-22T21:43:41.764Z,6.03
2019-03-22T21:46:10.906Z,10.03
2019-03-22T21:48:40.248Z,11.83
2019-03-22T21:51:09.852Z,7.85
2019-03-22T21:53:39.080Z,7.50
2019-03-22T21:56:08.000Z,7.40
2019-03-22T21:58:37.153Z,6.47
2019-03-22T22:01:05.917Z,4.53
2019-03-22T22:03:34.621Z,7.10
2019-03-22T22:06:03.964Z,7.92
2019-03-22T22:08:32.791Z,15.78
2019-03-22T22:11:01.816Z,9.33
2019-03-22T22:13:30.751Z,5.92
2019-03-22T22:15:59.669Z,5.40
2019-03-22T22:18:28.768Z,6.08
2019-03-22T22:20:57.793Z,6.03
2019-03-22T22:23:26.640Z,7.05
2019-03-22T22:25:55.474Z,9.80
2019-03-22T22:28:24.633Z,5.00
2019-03-22T22:30:53.495Z,9.95
2019-03-22T22:33:22.422Z,7.28
2019-03-22T22:35:58.631Z,5.40
2019-03-22T22:38:21.983Z,4.42
2019-03-22T22:40:51.074Z,8.43
2019-03-22T22:43:19.967Z,5.12
2019-03-22T22:45:48.943Z,7.28
2019-03-22T22:48:17.836Z,8.55
2019-03-22T22:50:46.608Z,7.05
2019-03-22T22:53:15.368Z,6.95
2019-03-22T22:55:44.218Z,7.05
2019-03-22T22:58:12.894Z,6.05
2019-03-22T23:00:42.034Z,6.35
2019-03-22T23:03:10.930Z,5.37
2019-03-22T23:05:40.070Z,7.22
2019-03-22T23:08:09.628Z,10.08
2019-03-22T23:10:38.303Z,7.67
2019-03-22T23:13:07.105Z,7.60
2019-03-22T23:15:36.387Z,4.62
2019-03-22T23:18:05.057Z,4.97
2019-03-22T23:20:33.761Z,8.55
2019-03-22T23:23:02.519Z,4.53
2019-03-22T23:25:31.221Z,6.05
2019-03-22T23:28:00.038Z,9.85
2019-03-22T23:30:28.902Z,11.68
2019-03-22T23:32:57.641Z,6.12
2019-03-22T23:35:26.537Z,9.15
2019-03-22T23:37:55.309Z,6.78
2019-03-22T23:40:24.087Z,8.03
2019-03-22T23:42:52.846Z,9.45
2019-03-22T23:45:21.751Z,8.25
2019-03-22T23:47:50.450Z,11.08
2019-03-22T23:50:19.248Z,10.08
2019-03-22T23:52:47.973Z,9.68
2019-03-22T23:55:16.704Z,7.37
2019-03-22T23:57:45.389Z,10.93
